Time;durP1;ratioP1;P1;durP2;ratioP2;P2;SDS_P1;SDS_P2;PMS_P1;PMS_P2;Temp;Humidity;BMP_temperature;BMP_pressure;BME280_temperature;BME280_humidity;BME280_pressure;Samples;Min_cycle;Max_cycle;Signal;HPM_P1;HPM_P2
2021/01/22 00:01:26;;;;;;;2.75;1.90;;;;;;;5.11;91.11;98296.41;5221197;28;20032;-70
2021/01/22 00:03:57;;;;;;;2.20;1.95;;;;;;;5.02;93.33;98300.78;5223924;28;20021;-70
2021/01/22 00:06:28;;;;;;;2.30;2.00;;;;;;;4.87;92.45;98323.09;5224301;28;20051;-71
2021/01/22 00:09:00;;;;;;;3.83;2.55;;;;;;;4.65;92.64;98337.41;5220928;28;20079;-70
2021/01/22 00:11:31;;;;;;;5.03;2.80;;;;;;;4.50;94.03;98350.13;5225301;28;20742;-70
2021/01/22 00:14:02;;;;;;;2.70;2.45;;;;;;;4.55;93.73;98353.09;5224692;28;20071;-70
2021/01/22 00:16:33;;;;;;;2.70;2.13;;;;;;;4.44;91.22;98368.09;5223309;28;20101;-69
2021/01/22 00:19:05;;;;;;;3.08;2.10;;;;;;;4.34;91.25;98374.16;5223968;28;20071;-70
2021/01/22 00:21:37;;;;;;;3.13;2.63;;;;;;;4.10;95.33;98386.94;5222515;28;20038;-69
2021/01/22 00:24:08;;;;;;;2.38;1.80;;;;;;;4.09;90.96;98399.09;5222823;28;20030;-70
2021/01/22 00:26:39;;;;;;;3.00;1.70;;;;;;;3.91;91.17;98411.22;5221512;28;20030;-70
2021/01/22 00:29:10;;;;;;;1.75;1.02;;;;;;;4.10;86.62;98413.69;5223353;28;20479;-70
2021/01/22 00:31:42;;;;;;;2.95;1.45;;;;;;;3.72;91.29;98429.50;5219916;28;20518;-70
2021/01/22 00:34:13;;;;;;;2.00;1.40;;;;;;;3.55;91.88;98439.66;5221113;28;20519;-70
2021/01/22 00:36:44;;;;;;;1.92;1.30;;;;;;;3.38;90.94;98440.44;5226139;28;20474;-70
2021/01/22 00:39:16;;;;;;;1.50;1.13;;;;;;;3.15;92.50;98448.56;5222162;28;20127;-70
2021/01/22 00:41:47;;;;;;;1.58;0.90;;;;;;;3.23;90.99;98455.63;5221919;28;20380;-70
2021/01/22 00:44:18;;;;;;;2.95;1.58;;;;;;;3.15;94.54;98458.09;5223278;28;20025;-70
2021/01/22 00:46:49;;;;;;;2.70;2.08;;;;;;;3.08;94.53;98465.59;5224032;28;20029;-71
2021/01/22 00:49:21;;;;;;;2.20;1.60;;;;;;;3.10;95.30;98473.22;5222571;28;20025;-70
2021/01/22 00:51:52;;;;;;;2.60;1.70;;;;;;;3.04;93.67;98484.94;5224231;28;20041;-71
2021/01/22 00:54:23;;;;;;;3.65;2.00;;;;;;;3.08;95.53;98494.06;5222482;28;20076;-70
2021/01/22 00:56:55;;;;;;;2.72;2.17;;;;;;;2.99;95.89;98494.88;5221778;28;20025;-70
2021/01/22 00:59:26;;;;;;;3.03;2.10;;;;;;;3.09;94.66;98507.81;5224871;28;20388;-70
2021/01/22 01:01:57;;;;;;;5.50;2.22;;;;;;;3.00;97.89;98511.25;5221630;28;20037;-70
2021/01/22 01:04:29;;;;;;;3.25;2.38;;;;;;;2.94;98.91;98517.75;5223537;28;20059;-70
2021/01/22 01:07:00;;;;;;;3.83;3.17;;;;;;;2.99;99.01;98523.31;5240429;28;20054;-70
2021/01/22 01:09:31;;;;;;;4.43;3.08;;;;;;;2.90;98.92;98519.00;5223688;28;20079;-70
2021/01/22 01:12:03;;;;;;;3.95;3.33;;;;;;;3.01;96.84;98529.19;5222435;28;20025;-70
2021/01/22 01:14:34;;;;;;;4.82;3.97;;;;;;;2.96;97.40;98538.34;5221325;28;20025;-72
2021/01/22 01:17:06;;;;;;;6.95;4.60;;;;;;;3.00;100.00;98561.19;5223295;28;20091;-69
2021/01/22 01:19:37;;;;;;;4.75;4.25;;;;;;;2.94;97.90;98564.31;5222545;28;21007;-70
2021/01/22 01:22:08;;;;;;;4.93;4.43;;;;;;;2.82;98.82;98560.25;5224997;28;20495;-70
2021/01/22 01:24:39;;;;;;;6.18;5.18;;;;;;;2.93;100.00;98570.47;5220924;28;20510;-70
2021/01/22 01:27:11;;;;;;;6.03;5.43;;;;;;;2.90;98.66;98587.06;5222613;28;20489;-69
2021/01/22 01:29:42;;;;;;;7.40;6.05;;;;;;;2.91;100.00;98577.53;5224157;28;20029;-70
2021/01/22 01:32:13;;;;;;;6.55;5.95;;;;;;;2.90;100.00;98575.91;5221936;28;20071;-70
2021/01/22 01:34:44;;;;;;;6.43;5.63;;;;;;;2.90;98.87;98597.41;5221925;28;20113;-69
2021/01/22 01:37:16;;;;;;;7.70;6.90;;;;;;;2.89;100.00;98618.22;5222912;28;20056;-70
2021/01/22 01:39:47;;;;;;;8.98;6.85;;;;;;;2.93;100.00;98623.00;5222635;28;20014;-70
2021/01/22 01:42:18;;;;;;;7.90;6.85;;;;;;;2.91;100.00;98621.47;5222583;28;20049;-70
2021/01/22 01:44:49;;;;;;;6.18;5.55;;;;;;;2.87;100.00;98623.53;5220435;28;20061;-70
2021/01/22 01:47:21;;;;;;;6.30;5.70;;;;;;;2.90;100.00;98625.84;5223404;28;20044;-69
2021/01/22 01:49:52;;;;;;;6.50;5.45;;;;;;;2.87;100.00;98620.94;5224417;28;20077;-69
2021/01/22 01:52:23;;;;;;;6.53;5.70;;;;;;;2.91;100.00;98624.06;5223271;28;20486;-69
2021/01/22 01:54:54;;;;;;;5.97;5.35;;;;;;;2.87;100.00;98620.94;5227666;28;20127;-69
2021/01/22 01:57:26;;;;;;;7.07;5.75;;;;;;;2.91;100.00;98629.25;5228816;28;20033;-69
2021/01/22 01:59:59;;;;;;;8.65;5.70;;;;;;;2.88;100.00;98632.13;5226389;28;20479;-69
2021/01/22 02:02:30;;;;;;;5.60;4.47;;;;;;;2.93;100.00;98624.75;5224949;28;20140;-69
2021/01/22 02:05:02;;;;;;;6.07;5.07;;;;;;;2.90;100.00;98619.84;5225171;28;20558;-69
2021/01/22 02:07:33;;;;;;;6.10;5.03;;;;;;;2.85;100.00;98622.03;5245507;28;20034;-70
2021/01/22 02:10:06;;;;;;;6.07;4.68;;;;;;;2.80;100.00;98637.13;5226440;28;20029;-69
2021/01/22 02:12:39;;;;;;;6.80;5.20;;;;;;;2.78;100.00;98655.38;5227738;28;20045;-70
2021/01/22 02:15:13;;;;;;;5.72;4.28;;;;;;;2.77;100.00;98668.44;5227159;28;20285;-69
2021/01/22 02:17:46;;;;;;;4.78;4.30;;;;;;;2.76;100.00;98671.97;5226715;28;20079;-69
2021/01/22 02:20:29;;;;;;;8.20;4.90;;;;;;;2.71;100.00;98659.44;5226364;28;20076;-69
2021/01/22 02:23:01;;;;;;;4.47;3.83;;;;;;;2.71;100.00;98671.56;5216543;28;20071;-70
2021/01/22 02:25:40;;;;;;;6.63;4.13;;;;;;;2.75;100.00;98671.16;5228456;28;20033;-69
2021/01/22 02:28:13;;;;;;;4.28;3.33;;;;;;;2.66;100.00;98683.13;5226881;28;20033;-70
2021/01/22 02:30:47;;;;;;;4.70;3.83;;;;;;;2.74;100.00;98685.03;5225951;28;20554;-69
2021/01/22 02:33:20;;;;;;;5.22;3.58;;;;;;;2.68;100.00;98703.66;5225133;28;20040;-69
2021/01/22 02:35:55;;;;;;;4.20;3.10;;;;;;;2.61;100.00;98712.88;5227082;28;20037;-69
2021/01/22 02:38:27;;;;;;;4.15;2.92;;;;;;;2.57;100.00;98714.09;5224778;28;20017;-69
2021/01/22 02:40:59;;;;;;;4.25;2.30;;;;;;;2.52;100.00;98718.84;5224784;28;20321;-69
2021/01/22 02:43:31;;;;;;;4.68;2.45;;;;;;;2.48;100.00;98717.50;5226264;28;20089;-69
2021/01/22 02:46:04;;;;;;;4.57;2.42;;;;;;;2.46;100.00;98720.19;5224258;28;20301;-70
2021/01/22 02:48:35;;;;;;;3.70;2.55;;;;;;;2.47;100.00;98737.34;5226334;28;20036;-69
2021/01/22 02:51:14;;;;;;;4.70;2.30;;;;;;;2.44;100.00;98737.59;5229456;28;20034;-70
2021/01/22 02:53:45;;;;;;;4.72;2.30;;;;;;;2.38;100.00;98738.09;5226371;28;20136;-69
2021/01/22 02:56:47;;;;;;;3.00;2.30;;;;;;;2.38;100.00;98748.44;5227209;28;20116;-68
2021/01/22 02:59:38;;;;;;;3.10;2.25;;;;;;;2.31;100.00;98735.25;5226985;28;20037;-69
2021/01/22 03:02:41;;;;;;;3.65;2.20;;;;;;;2.35;100.00;98748.69;5220668;28;20061;-69
2021/01/22 03:05:15;;;;;;;5.38;2.47;;;;;;;2.27;100.00;98756.28;5224215;28;20399;-69
2021/01/22 03:07:52;;;;;;;4.35;2.60;;;;;;;2.28;100.00;98752.78;5227660;28;20087;-69
2021/01/22 03:10:25;;;;;;;5.25;2.85;;;;;;;2.24;100.00;98753.97;5222663;28;20037;-68
2021/01/22 03:12:58;;;;;;;4.05;2.50;;;;;;;2.19;100.00;98744.00;5227470;28;20969;-69
2021/01/22 03:15:29;;;;;;;5.55;2.70;;;;;;;2.17;100.00;98745.91;5218834;28;20380;-68
2021/01/22 03:18:18;;;;;;;6.00;3.33;;;;;;;2.25;100.00;98758.19;5223567;28;20025;-69
2021/01/22 03:20:49;;;;;;;5.88;3.38;;;;;;;2.17;100.00;98767.41;5222834;28;20371;-69
2021/01/22 03:23:20;;;;;;;6.25;3.08;;;;;;;2.12;100.00;98776.47;5227346;28;20287;-69
2021/01/22 03:25:51;;;;;;;5.63;3.70;;;;;;;2.12;100.00;98785.06;5220786;28;20033;-69
2021/01/22 03:28:23;;;;;;;5.68;3.65;;;;;;;2.12;100.00;98779.03;5224348;28;20644;-69
2021/01/22 03:30:54;;;;;;;5.03;3.55;;;;;;;2.06;100.00;98776.97;5223140;28;20038;-69
2021/01/22 03:33:25;;;;;;;6.80;4.00;;;;;;;2.06;100.00;98779.56;5223014;28;20037;-68
2021/01/22 03:35:56;;;;;;;6.55;3.88;;;;;;;2.04;100.00;98786.59;5222543;28;20045;-69
2021/01/22 03:38:28;;;;;;;6.90;4.78;;;;;;;2.02;100.00;98793.69;5223327;28;20137;-69
2021/01/22 03:40:59;;;;;;;6.05;4.25;;;;;;;2.03;100.00;98800.47;5224874;28;20036;-68
2021/01/22 03:43:30;;;;;;;10.45;4.38;;;;;;;2.00;100.00;98806.69;5224035;28;20037;-68
2021/01/22 03:46:02;;;;;;;9.00;4.97;;;;;;;2.00;100.00;98817.03;5225614;28;20501;-68
2021/01/22 03:48:33;;;;;;;7.10;4.68;;;;;;;1.98;100.00;98813.78;5221478;28;20424;-69
2021/01/22 03:51:04;;;;;;;8.95;5.32;;;;;;;1.98;100.00;98825.88;5224138;28;20033;-69
2021/01/22 03:53:36;;;;;;;10.95;6.65;;;;;;;1.98;100.00;98831.84;5225143;28;20029;-69
2021/01/22 03:56:07;;;;;;;9.27;6.78;;;;;;;1.99;100.00;98836.06;5221591;28;20391;-69
2021/01/22 03:58:38;;;;;;;12.35;6.07;;;;;;;2.00;100.00;98835.09;5226204;28;20083;-69
2021/01/22 04:01:09;;;;;;;11.32;6.60;;;;;;;1.98;100.00;98834.44;5221516;28;20033;-69
2021/01/22 04:03:41;;;;;;;12.60;7.05;;;;;;;2.00;100.00;98829.94;5224046;28;20041;-69
2021/01/22 04:06:12;;;;;;;9.93;7.07;;;;;;;2.01;100.00;98834.19;5223564;28;20049;-69
2021/01/22 04:08:43;;;;;;;10.27;7.18;;;;;;;1.97;100.00;98830.22;5220698;28;20057;-68
2021/01/22 04:11:14;;;;;;;10.25;7.70;;;;;;;1.99;100.00;98838.66;5224758;28;20061;-68
2021/01/22 04:13:47;;;;;;;9.25;6.95;;;;;;;1.98;100.00;98837.00;5219025;28;20064;-68
2021/01/22 04:16:19;;;;;;;11.30;7.72;;;;;;;1.97;100.00;98843.13;5225520;28;20033;-68
2021/01/22 04:18:50;;;;;;;14.77;8.48;;;;;;;1.99;100.00;98845.56;5223351;28;20388;-68
2021/01/22 04:21:21;;;;;;;13.27;7.95;;;;;;;1.98;100.00;98843.94;5221991;28;20034;-68
2021/01/22 04:23:52;;;;;;;13.18;8.80;;;;;;;1.98;100.00;98841.38;5226598;28;20029;-68
2021/01/22 04:26:24;;;;;;;15.27;9.13;;;;;;;1.98;100.00;98833.63;5224892;28;20055;-68
2021/01/22 04:28:57;;;;;;;12.63;8.90;;;;;;;1.96;100.00;98836.31;5226445;28;20033;-68
2021/01/22 04:31:28;;;;;;;;;;;;;;;2.06;100.00;98847.53;5227841;28;20737;-68
2021/01/22 04:33:59;;;;;;;10.50;8.30;;;;;;;2.03;100.00;98849.53;5222632;28;19917;-68
2021/01/22 04:36:31;;;;;;;14.55;9.23;;;;;;;2.04;100.00;98849.41;5223850;28;20037;-68
2021/01/22 04:39:04;;;;;;;13.55;8.35;;;;;;;2.06;100.00;98854.47;5224005;28;20025;-68
2021/01/22 04:41:35;;;;;;;14.38;8.75;;;;;;;2.03;100.00;98852.13;5226483;28;20029;-68
2021/01/22 04:44:07;;;;;;;15.98;9.10;;;;;;;2.06;100.00;98852.69;5222725;28;20044;-69
2021/01/22 04:46:38;;;;;;;13.27;9.30;;;;;;;2.07;100.00;98859.50;5223726;28;20553;-68
2021/01/22 04:49:10;;;;;;;16.05;9.85;;;;;;;2.07;100.00;98851.75;5223614;28;20059;-68
2021/01/22 04:51:43;;;;;;;15.05;9.30;;;;;;;2.06;100.00;98852.69;5223161;28;20037;-68
2021/01/22 04:54:25;;;;;;;16.23;9.60;;;;;;;2.09;100.00;98852.47;5221251;28;20025;-69
2021/01/22 04:56:58;;;;;;;15.27;9.88;;;;;;;2.11;100.00;98857.47;5223825;28;20479;-68
2021/01/22 04:59:34;;;;;;;13.95;9.68;;;;;;;2.14;100.00;98858.06;5223183;28;20056;-68
2021/01/22 05:02:05;;;;;;;13.77;9.52;;;;;;;2.17;100.00;98867.31;5217503;28;20041;-68
2021/01/22 05:04:39;;;;;;;15.20;9.50;;;;;;;2.17;100.00;98869.91;5221603;28;20482;-68
2021/01/22 05:07:10;;;;;;;;;;;;;;;2.23;100.00;98876.31;5222742;28;20049;-68
2021/01/22 05:09:42;;;;;;;14.77;9.93;;;;;;;2.14;100.00;98878.72;5219928;28;20433;-68
2021/01/22 05:12:13;;;;;;;12.98;10.00;;;;;;;2.12;100.00;98882.38;5223184;28;20032;-68
2021/01/22 05:14:44;;;;;;;15.73;9.25;;;;;;;2.11;100.00;98891.06;5225326;28;20497;-68
2021/01/22 05:17:15;;;;;;;16.27;10.07;;;;;;;2.08;100.00;98891.31;5222990;28;20025;-68
2021/01/22 05:19:47;;;;;;;14.18;9.77;;;;;;;2.07;100.00;98895.66;5223441;28;20036;-68
2021/01/22 05:22:19;;;;;;;13.50;10.02;;;;;;;2.05;100.00;98892.41;5223174;28;20053;-68
2021/01/22 05:24:59;;;;;;;17.55;10.32;;;;;;;2.06;100.00;98883.69;5222355;28;20021;-68
2021/01/22 05:27:47;;;;;;;16.15;10.40;;;;;;;2.09;100.00;98887.81;5224651;28;20065;-68
2021/01/22 05:30:19;;;;;;;14.13;9.52;;;;;;;2.02;100.00;98884.88;5226015;28;20109;-68
2021/01/22 05:32:51;;;;;;;15.30;10.43;;;;;;;2.03;100.00;98886.53;5227177;28;20049;-68
2021/01/22 05:35:31;;;;;;;18.02;10.70;;;;;;;2.05;100.00;98891.56;5228288;28;20498;-68
2021/01/22 05:38:03;;;;;;;19.20;10.73;;;;;;;2.02;100.00;98884.88;5226548;28;20037;-68
2021/01/22 05:40:34;;;;;;;23.10;12.88;;;;;;;2.03;100.00;98896.03;5228534;28;20497;-68
2021/01/22 05:43:05;;;;;;;22.90;11.50;;;;;;;2.04;100.00;98908.81;5227079;28;20030;-68
2021/01/22 05:45:42;;;;;;;18.27;11.50;;;;;;;2.00;100.00;98902.25;5227955;28;20034;-68
2021/01/22 05:48:22;;;;;;;17.13;11.88;;;;;;;2.05;100.00;98913.06;5226808;28;20096;-69
2021/01/22 05:50:58;;;;;;;19.92;12.30;;;;;;;2.07;100.00;98910.34;5229561;28;20045;-68
2021/01/22 05:53:29;;;;;;;19.98;11.80;;;;;;;2.03;100.00;98907.19;5227347;28;20061;-68
2021/01/22 05:56:11;;;;;;;18.45;12.73;;;;;;;2.10;100.00;98910.91;5228598;28;20060;-68
2021/01/22 05:58:47;;;;;;;19.33;12.32;;;;;;;2.06;100.00;98909.53;5228439;28;20398;-68
2021/01/22 06:01:20;;;;;;;16.90;12.35;;;;;;;2.06;100.00;98909.53;5226808;28;20029;-68
2021/01/22 06:04:05;;;;;;;16.35;12.13;;;;;;;2.13;100.00;98915.84;5229345;28;20441;-68
2021/01/22 06:06:37;;;;;;;20.17;12.70;;;;;;;2.13;100.00;98926.16;5228917;28;20124;-69
2021/01/22 06:09:08;;;;;;;17.35;12.35;;;;;;;2.15;100.00;98926.84;5227298;28;20116;-68
2021/01/22 06:11:41;;;;;;;20.08;11.63;;;;;;;2.11;100.00;98919.47;5239820;28;20029;-68
2021/01/22 06:14:13;;;;;;;19.38;12.13;;;;;;;2.14;100.00;98927.81;5225922;28;20034;-67
2021/01/22 06:16:44;;;;;;;21.08;12.30;;;;;;;2.16;100.00;98922.53;5228062;28;20513;-68
2021/01/22 06:19:19;;;;;;;22.73;12.13;;;;;;;2.18;100.00;98923.22;5225493;28;20033;-68
2021/01/22 06:22:05;;;;;;;19.85;12.82;;;;;;;2.19;100.00;98925.66;5228014;28;20025;-68
2021/01/22 06:24:37;;;;;;;18.60;12.65;;;;;;;2.21;100.00;98925.56;5228128;28;20026;-67
2021/01/22 06:27:10;;;;;;;20.02;11.98;;;;;;;2.21;100.00;98928.13;5225678;28;20033;-68
2021/01/22 06:29:44;;;;;;;22.35;12.68;;;;;;;2.23;100.00;98935.75;5226831;28;20057;-68
2021/01/22 06:32:17;;;;;;;22.33;12.27;;;;;;;2.24;100.00;98940.81;5229267;28;20117;-68
2021/01/22 06:34:49;;;;;;;20.58;12.57;;;;;;;2.26;100.00;98948.44;5216259;28;20040;-68
2021/01/22 06:37:23;;;;;;;20.85;11.73;;;;;;;2.28;100.00;98952.53;5224931;28;20030;-68
2021/01/22 06:39:55;;;;;;;15.18;10.73;;;;;;;2.27;100.00;98937.94;5225405;28;20030;-68
2021/01/22 06:42:26;;;;;;;16.25;10.57;;;;;;;2.28;100.00;98949.94;5226910;28;20541;-68
2021/01/22 06:44:58;;;;;;;16.15;10.93;;;;;;;2.29;100.00;98955.94;5225661;28;20026;-68
2021/01/22 06:47:29;;;;;;;19.90;11.38;;;;;;;2.30;100.00;98960.16;5243886;28;20127;-68
2021/01/22 06:50:00;;;;;;;18.65;11.90;;;;;;;2.30;100.00;98962.72;5227011;28;20037;-69
2021/01/22 06:52:31;;;;;;;21.50;11.13;;;;;;;2.30;100.00;98965.31;5226075;28;20029;-68
2021/01/22 06:55:04;;;;;;;22.25;10.85;;;;;;;2.31;100.00;98969.53;5227087;28;20041;-68
2021/01/22 06:57:38;;;;;;;15.07;10.70;;;;;;;2.30;100.00;98970.47;5226652;28;20116;-68
2021/01/22 07:00:34;;;;;;;18.90;10.50;;;;;;;2.32;100.00;98969.44;5224850;28;20069;-68
2021/01/22 07:03:06;;;;;;;18.02;9.57;;;;;;;2.30;100.00;98973.06;5226501;28;20079;-68
2021/01/22 07:05:37;;;;;;;15.70;10.05;;;;;;;2.29;100.00;98981.78;5225393;28;20045;-68
2021/01/22 07:08:08;;;;;;;15.20;10.15;;;;;;;2.29;100.00;98981.78;5222667;28;20384;-68
2021/01/22 07:10:56;;;;;;;20.20;10.88;;;;;;;2.31;100.00;98977.28;5225594;28;20908;-68
2021/01/22 07:13:31;;;;;;;19.73;10.82;;;;;;;2.31;100.00;98982.44;5225470;28;20057;-68
2021/01/22 07:16:20;;;;;;;23.42;10.50;;;;;;;2.32;100.00;98989.28;5225373;28;20044;-68
2021/01/22 07:18:57;;;;;;;24.83;11.43;;;;;;;2.29;100.00;98994.69;5226547;28;20029;-68
2021/01/22 07:21:30;;;;;;;17.00;11.55;;;;;;;2.29;100.00;98998.09;5220634;28;20031;-68
2021/01/22 07:24:12;;;;;;;15.60;11.35;;;;;;;2.30;100.00;99001.50;5223322;28;20037;-68
2021/01/22 07:26:48;;;;;;;20.13;10.95;;;;;;;2.29;100.00;99002.44;5224775;28;20437;-68
2021/01/22 07:29:24;;;;;;;18.42;11.57;;;;;;;2.28;100.00;99011.97;5223475;28;20433;-68
2021/01/22 07:32:01;;;;;;;19.20;11.95;;;;;;;2.31;100.00;99018.63;5226186;28;20037;-68
2021/01/22 07:34:48;;;;;;;19.33;10.93;;;;;;;2.31;100.00;99009.13;5226546;28;20040;-68
2021/01/22 07:37:34;;;;;;;20.17;11.55;;;;;;;2.29;100.00;99011.00;5224050;28;20045;-67
2021/01/22 07:40:09;;;;;;;19.65;12.18;;;;;;;2.30;100.00;99020.41;5223895;28;20437;-68
2021/01/22 07:42:41;;;;;;;28.98;12.75;;;;;;;2.31;100.00;99016.91;5216140;28;20036;-68
2021/01/22 07:45:15;;;;;;;23.23;12.05;;;;;;;2.32;100.00;99026.28;5222089;28;20129;-68
2021/01/22 07:47:47;;;;;;;;;;;;;;;2.37;100.00;99031.88;5223507;28;20152;-68
2021/01/22 07:50:23;;;;;;;22.55;11.80;;;;;;;2.30;100.00;99033.31;5222329;28;20390;-68
2021/01/22 07:52:54;;;;;;;22.52;13.32;;;;;;;2.33;100.00;99045.19;5219310;28;20025;-68
2021/01/22 07:55:27;;;;;;;22.98;12.73;;;;;;;2.34;100.00;99054.56;5219580;28;20029;-68
2021/01/22 07:58:05;;;;;;;23.35;13.32;;;;;;;2.37;100.00;99059.50;5226256;28;20048;-68
2021/01/22 08:00:38;;;;;;;22.90;13.63;;;;;;;2.36;100.00;99056.09;5220328;28;20037;-68
2021/01/22 08:03:11;;;;;;;24.07;12.33;;;;;;;2.37;100.00;99056.91;5224577;28;20032;-68
2021/01/22 08:05:43;;;;;;;23.50;13.60;;;;;;;2.37;100.00;99056.91;5222372;28;20049;-67
2021/01/22 08:08:19;;;;;;;31.67;14.30;;;;;;;2.39;100.00;99065.38;5220587;28;20030;-69
2021/01/22 08:10:50;;;;;;;23.73;13.82;;;;;;;2.37;100.00;99073.22;5220564;28;20411;-68
2021/01/22 08:13:22;;;;;;;23.05;13.95;;;;;;;2.40;100.00;99067.81;5222347;28;20026;-68
2021/01/22 08:16:03;;;;;;;26.27;13.77;;;;;;;2.44;100.00;99073.56;5218846;28;20075;-68
2021/01/22 08:18:35;;;;;;;27.30;14.45;;;;;;;2.42;100.00;99080.63;5219224;28;20483;-68
2021/01/22 08:21:07;;;;;;;24.13;14.35;;;;;;;2.44;100.00;99083.91;5223701;28;20014;-68
2021/01/22 08:23:47;;;;;;;24.60;13.53;;;;;;;2.43;100.00;99085.69;5220732;28;20033;-68
2021/01/22 08:26:18;;;;;;;25.95;13.77;;;;;;;2.46;100.00;99092.34;5223049;28;20371;-68
2021/01/22 08:28:53;;;;;;;28.73;13.85;;;;;;;2.48;100.00;99092.25;5222917;28;20461;-68
2021/01/22 08:31:24;;;;;;;24.58;13.30;;;;;;;2.49;100.00;99096.47;5223746;28;20029;-68
2021/01/22 08:33:59;;;;;;;28.73;14.00;;;;;;;2.52;100.00;99097.06;5223154;28;20463;-68
2021/01/22 08:36:30;;;;;;;29.98;14.55;;;;;;;2.52;100.00;99099.63;5222990;28;20132;-68
2021/01/22 08:39:02;;;;;;;24.52;13.55;;;;;;;2.54;100.00;99102.94;5223356;28;20646;-69
2021/01/22 08:41:34;;;;;;;29.10;14.20;;;;;;;2.56;100.00;99110.56;5219521;28;20061;-69
2021/01/22 08:44:06;;;;;;;26.25;14.80;;;;;;;2.58;100.00;99112.09;5236030;28;20026;-69
2021/01/22 08:46:50;;;;;;;24.90;15.15;;;;;;;2.58;100.00;99106.09;5225565;28;20063;-69
2021/01/22 08:49:21;;;;;;;24.67;13.85;;;;;;;2.61;100.00;99114.44;5213598;28;20030;-69
2021/01/22 08:51:52;;;;;;;26.15;14.23;;;;;;;2.62;100.00;99120.41;5224055;28;20418;-69
2021/01/22 08:54:36;;;;;;;24.88;13.35;;;;;;;2.67;100.00;99121.69;5234892;28;20073;-69
2021/01/22 08:57:08;;;;;;;;;;;;;;;2.74;100.00;99129.78;5222457;28;20486;-69
2021/01/22 08:59:53;;;;;;;25.13;14.07;;;;;;;2.71;100.00;99134.38;5224130;28;19912;-69
2021/01/22 09:02:40;;;;;;;30.13;15.55;;;;;;;2.75;100.00;99136.59;5213070;28;20026;-69
2021/01/22 09:05:13;;;;;;;25.42;13.45;;;;;;;2.75;100.00;99135.75;5220655;28;20417;-69
2021/01/22 09:07:44;;;;;;;;;;;;;;;2.84;100.00;99148.78;5217599;28;20521;-69
2021/01/22 09:10:27;;;;;;;27.98;14.82;;;;;;;2.83;100.00;99151.50;5220025;28;19922;-69
2021/01/22 09:13:16;;;;;;;25.65;14.82;;;;;;;2.85;100.00;99158.19;5204275;28;20169;-69
2021/01/22 09:15:49;;;;;;;23.33;14.07;;;;;;;2.85;100.00;99152.19;5217873;28;20033;-69
2021/01/22 09:18:23;;;;;;;30.92;15.25;;;;;;;2.88;100.00;99160.53;5220051;28;20021;-69
2021/01/22 09:21:02;;;;;;;20.60;13.57;;;;;;;2.92;100.00;99172.28;5216504;28;20066;-69
2021/01/22 09:23:36;;;;;;;21.40;13.77;;;;;;;2.96;100.00;99166.88;5219442;28;20033;-69
2021/01/22 09:26:07;;;;;;;25.27;14.82;;;;;;;2.96;100.00;99172.03;5223228;28;20041;-69
2021/01/22 09:28:38;;;;;;;23.77;13.88;;;;;;;2.99;100.00;99182.94;5214913;28;20387;-69
2021/01/22 09:31:10;;;;;;;22.10;13.68;;;;;;;3.02;100.00;99180.09;5218227;28;21316;-69
2021/01/22 09:33:41;;;;;;;19.40;13.32;;;;;;;3.01;100.00;99185.41;5216949;28;20025;-69
2021/01/22 09:36:12;;;;;;;23.13;13.70;;;;;;;3.05;100.00;99194.56;5214107;28;20026;-69
2021/01/22 09:38:43;;;;;;;18.33;12.02;;;;;;;3.06;100.00;99197.03;5217438;28;20142;-69
2021/01/22 09:41:15;;;;;;;20.50;13.25;;;;;;;3.06;100.00;99199.63;5216725;28;20037;-69
2021/01/22 09:43:46;;;;;;;24.17;13.63;;;;;;;3.09;100.00;99211.50;5211658;28;20033;-69
2021/01/22 09:46:19;;;;;;;24.73;13.18;;;;;;;3.11;100.00;99207.84;5218845;28;20027;-69
2021/01/22 09:48:50;;;;;;;21.30;13.10;;;;;;;3.13;100.00;99210.31;5221730;28;20021;-69
2021/01/22 09:51:21;;;;;;;21.73;11.68;;;;;;;3.15;100.00;99213.59;5222311;28;20496;-69
2021/01/22 09:53:52;;;;;;;22.58;12.52;;;;;;;3.16;100.00;99221.22;5221063;28;20117;-69
2021/01/22 09:56:24;;;;;;;19.98;11.95;;;;;;;3.19;100.00;99224.53;5216084;28;20029;-69
2021/01/22 09:58:55;;;;;;;20.98;12.85;;;;;;;3.24;100.00;99232.75;5222529;28;20068;-69
2021/01/22 10:01:26;;;;;;;18.73;11.73;;;;;;;3.28;100.00;99232.34;5223546;28;20048;-69
2021/01/22 10:03:57;;;;;;;28.08;12.35;;;;;;;3.30;100.00;99230.50;5221184;28;20491;-69
2021/01/22 10:06:29;;;;;;;21.42;11.93;;;;;;;3.34;100.00;99238.81;5217921;28;20041;-68
2021/01/22 10:09:01;;;;;;;19.02;11.23;;;;;;;3.38;100.00;99241.03;5236486;28;20086;-68
2021/01/22 10:11:32;;;;;;;21.77;11.77;;;;;;;3.41;100.00;99240.81;5218697;28;20041;-68
2021/01/22 10:14:03;;;;;;;21.60;11.52;;;;;;;3.44;100.00;99239.72;5224734;28;20022;-68
2021/01/22 10:16:35;;;;;;;18.05;10.68;;;;;;;3.48;100.00;99246.28;5219009;28;20360;-69
2021/01/22 10:19:06;;;;;;;19.85;11.40;;;;;;;3.51;100.00;99245.22;5226558;28;20686;-68
2021/01/22 10:21:37;;;;;;;17.65;11.20;;;;;;;3.56;100.00;99246.50;5224403;28;20040;-69
2021/01/22 10:24:09;;;;;;;18.15;10.65;;;;;;;3.58;100.00;99254.13;5239854;28;20777;-68
2021/01/22 10:26:40;;;;;;;20.55;10.85;;;;;;;3.58;100.00;99247.19;5223115;28;20080;-68
2021/01/22 10:29:12;;;;;;;18.45;10.82;;;;;;;3.61;100.00;99253.91;5224263;28;20029;-68
2021/01/22 10:31:44;;;;;;;17.83;10.77;;;;;;;3.61;100.00;99261.66;5220598;28;20029;-68
2021/01/22 10:34:16;;;;;;;17.42;10.73;;;;;;;3.61;100.00;99259.88;5227368;28;20103;-68
2021/01/22 10:36:47;;;;;;;14.98;9.82;;;;;;;3.60;100.00;99254.84;5222679;28;20064;-68
2021/01/22 10:39:18;;;;;;;18.35;10.32;;;;;;;3.63;100.00;99265.75;5226699;28;20475;-69
2021/01/22 10:41:50;;;;;;;17.98;10.82;;;;;;;3.65;100.00;99252.69;5219586;28;20028;-68
2021/01/22 10:44:21;;;;;;;19.83;10.50;;;;;;;3.68;100.00;99260.22;5218068;28;20116;-68
2021/01/22 10:46:52;;;;;;;17.85;10.55;;;;;;;3.74;100.00;99261.47;5225007;28;20013;-68
2021/01/22 10:49:23;;;;;;;24.73;10.13;;;;;;;3.80;100.00;99263.56;5224675;28;20095;-69
2021/01/22 10:51:55;;;;;;;19.40;10.30;;;;;;;3.81;100.00;99268.63;5226717;28;20056;-68
2021/01/22 10:54:28;;;;;;;16.05;10.50;;;;;;;3.85;100.00;99264.00;5222044;28;20117;-69
2021/01/22 10:56:59;;;;;;;16.40;9.82;;;;;;;3.92;100.00;99266.94;5221982;28;20025;-68
2021/01/22 10:59:30;;;;;;;17.63;10.10;;;;;;;3.89;100.00;99268.00;5221849;28;20408;-69
2021/01/22 11:02:07;;;;;;;20.63;10.45;;;;;;;3.96;100.00;99268.31;5225392;28;20025;-68
2021/01/22 11:04:41;;;;;;;18.85;10.05;;;;;;;4.00;100.00;99280.06;5219675;28;20030;-68
2021/01/22 11:07:13;;;;;;;16.58;9.63;;;;;;;4.05;100.00;99281.34;5225035;28;20083;-68
2021/01/22 11:09:44;;;;;;;18.55;8.95;;;;;;;4.10;100.00;99283.53;5240371;28;20553;-68
2021/01/22 11:12:15;;;;;;;15.80;9.15;;;;;;;4.18;100.00;99285.50;5223102;28;20045;-68
2021/01/22 11:14:48;;;;;;;17.45;9.43;;;;;;;4.23;100.00;99288.53;5222285;28;20034;-68
2021/01/22 11:17:19;;;;;;;18.02;9.20;;;;;;;4.30;100.00;99295.66;5220319;28;20108;-68
2021/01/22 11:19:50;;;;;;;21.25;9.75;;;;;;;4.34;100.00;99297.03;5222429;28;20030;-68
2021/01/22 11:22:22;;;;;;;18.80;9.55;;;;;;;4.42;100.00;99301.59;5238707;28;20105;-68
2021/01/22 11:24:53;;;;;;;14.65;8.95;;;;;;;4.47;100.00;99302.03;5220901;28;20036;-68
2021/01/22 11:27:25;;;;;;;16.33;9.77;;;;;;;4.55;100.00;99296.22;5223664;28;20040;-69
2021/01/22 11:29:57;;;;;;;15.05;9.02;;;;;;;4.64;100.00;99304.00;5219597;28;20392;-68
2021/01/22 11:32:28;;;;;;;16.42;9.20;;;;;;;4.70;100.00;99300.09;5221792;28;20116;-68
2021/01/22 11:34:59;;;;;;;15.43;8.40;;;;;;;4.78;98.77;99308.03;5221045;28;20112;-68
2021/01/22 11:37:31;;;;;;;16.42;8.27;;;;;;;4.78;98.63;99299.44;5222767;28;20025;-68
2021/01/22 11:40:04;;;;;;;15.50;9.00;;;;;;;4.86;98.49;99307.38;5220998;28;20055;-68
2021/01/22 11:42:35;;;;;;;13.98;7.30;;;;;;;4.92;99.69;99308.63;5221589;28;20034;-69
2021/01/22 11:45:07;;;;;;;15.25;8.18;;;;;;;4.96;96.48;99310.00;5222444;28;20501;-69
2021/01/22 11:47:39;;;;;;;12.68;7.15;;;;;;;4.99;96.21;99305.38;5224050;28;20940;-68
2021/01/22 11:50:10;;;;;;;14.50;7.22;;;;;;;5.01;96.56;99300.88;5213651;28;20022;-69
2021/01/22 11:52:42;;;;;;;17.13;7.65;;;;;;;5.09;96.21;99310.59;5221245;28;20063;-68
2021/01/22 11:55:13;;;;;;;16.27;7.38;;;;;;;5.08;94.47;99317.56;5217743;28;20032;-68